Time;durP1;ratioP1;P1;durP2;ratioP2;P2;SDS_P1;SDS_P2;PMS_P1;PMS_P2;Temp;Humidity;BMP_temperature;BMP_pressure;BME280_temperature;BME280_humidity;BME280_pressure;Samples;Min_cycle;Max_cycle;Signal;HPM_P1;HPM_P2
2022/01/11 00:02:26;;;;;;;24.80;7.68;;;2.40;99.90;;;2.01;97.18;102488.69;5204182;28;20425;-69
2022/01/11 00:05:00;;;;;;;26.80;8.00;;;2.40;99.90;;;2.03;97.07;102497.50;5204439;28;20045;-69
2022/01/11 00:07:34;;;;;;;26.45;8.73;;;2.40;99.90;;;2.01;96.74;102493.84;5204891;28;20052;-69
2022/01/11 00:10:09;;;;;;;24.67;8.60;;;2.40;99.90;;;1.88;96.70;102494.34;5204123;28;20140;-69
2022/01/11 00:12:41;;;;;;;25.38;7.88;;;2.30;99.90;;;1.88;96.78;102500.38;5205094;28;20061;-69
2022/01/11 00:15:13;;;;;;;25.73;7.65;;;2.30;99.90;;;1.90;97.13;102496.31;5202865;28;20050;-69
2022/01/11 00:17:45;;;;;;;21.30;6.75;;;2.30;99.90;;;1.91;96.92;102497.22;5204113;28;20053;-69
2022/01/11 00:20:20;;;;;;;23.77;7.93;;;2.40;99.90;;;1.87;96.97;102497.66;5205103;28;20397;-69
2022/01/11 00:25:47;;;;;;;26.30;8.20;;;2.30;99.90;;;1.75;97.27;102499.94;5202160;28;20506;-69
2022/01/11 00:28:20;;;;;;;25.67;7.53;;;2.30;99.90;;;1.70;97.04;102498.63;5204310;28;20055;-69
2022/01/11 00:30:53;;;;;;;19.20;7.10;;;2.20;99.90;;;1.66;97.81;102496.50;5204158;28;20510;-69
2022/01/11 00:33:34;;;;;;;23.75;7.60;;;2.20;99.90;;;1.61;98.02;102496.03;5204461;28;20413;-69
2022/01/11 00:36:08;;;;;;;27.85;8.95;;;2.20;99.90;;;1.62;98.10;102494.38;5216162;28;20140;-69
2022/01/11 00:38:42;;;;;;;24.52;7.60;;;2.10;99.90;;;1.58;97.94;102512.84;5226543;28;20080;-69
2022/01/11 00:41:15;;;;;;;20.23;7.55;;;2.10;99.90;;;1.56;97.70;102516.91;5218618;28;20391;-69
2022/01/11 00:43:47;;;;;;;24.55;7.22;;;2.10;99.90;;;1.54;98.07;102516.78;5210371;28;20046;-69
2022/01/11 00:46:19;;;;;;;21.98;6.88;;;2.10;99.90;;;1.58;97.64;102520.56;5207193;28;20045;-69
2022/01/11 00:48:51;;;;;;;16.08;6.25;;;2.10;99.90;;;1.57;97.65;102516.19;5225272;28;20055;-69
2022/01/11 00:51:24;;;;;;;22.52;7.13;;;2.10;99.90;;;1.58;97.39;102520.56;5224314;28;20295;-69
2022/01/11 00:53:57;;;;;;;18.88;7.78;;;2.10;99.90;;;1.52;97.00;102522.53;5224075;28;20056;-69
2022/01/11 00:56:29;;;;;;;19.17;6.85;;;2.10;99.90;;;1.48;97.88;102516.16;5220876;28;20076;-69
2022/01/11 00:59:01;;;;;;;20.52;7.22;;;2.00;99.90;;;1.49;97.93;102511.94;5204275;28;20421;-69
2022/01/11 01:01:37;;;;;;;19.02;7.38;;;2.00;99.90;;;1.51;98.24;102518.16;5204604;28;20056;-69
2022/01/11 01:04:10;;;;;;;25.48;7.60;;;2.00;99.90;;;1.50;98.36;102518.88;5203747;28;20505;-69
2022/01/11 01:06:45;;;;;;;18.80;6.95;;;2.00;99.90;;;1.57;97.95;102521.31;5204084;28;20045;-69
2022/01/11 01:09:17;;;;;;;26.90;7.35;;;2.00;99.90;;;1.63;98.12;102519.34;5213507;28;20064;-69
2022/01/11 01:11:50;;;;;;;27.45;9.07;;;2.10;99.90;;;1.59;97.11;102514.66;5223925;28;20053;-69
2022/01/11 01:14:22;;;;;;;24.08;7.90;;;2.10;99.90;;;1.57;97.22;102527.38;5211795;28;20058;-69
2022/01/11 01:16:54;;;;;;;24.45;9.48;;;2.10;99.90;;;1.57;97.09;102521.31;5203166;28;20049;-69
2022/01/11 01:19:27;;;;;;;28.83;8.38;;;2.10;99.90;;;1.65;97.50;102524.63;5203836;28;20045;-68
2022/01/11 01:22:01;;;;;;;27.02;8.70;;;2.10;99.90;;;1.66;97.23;102524.78;5203289;28;20119;-69
2022/01/11 01:24:33;;;;;;;25.13;8.23;;;2.10;99.90;;;1.68;97.11;102528.41;5203131;28;20048;-69
2022/01/11 01:27:06;;;;;;;28.33;9.30;;;2.10;99.90;;;1.73;96.83;102534.00;5202964;28;20042;-70
2022/01/11 01:29:38;;;;;;;26.45;8.30;;;2.10;99.90;;;1.73;97.17;102524.63;5200407;28;20048;-68
2022/01/11 01:32:11;;;;;;;23.70;8.25;;;2.20;99.90;;;1.78;96.89;102522.50;5203688;28;20045;-68
2022/01/11 01:34:43;;;;;;;22.52;8.23;;;2.20;99.90;;;1.70;96.81;102528.56;5202274;28;20048;-68
2022/01/11 01:37:17;;;;;;;23.27;7.53;;;2.20;99.90;;;1.66;97.31;102527.34;5223731;28;20045;-68
2022/01/11 01:39:49;;;;;;;23.17;7.38;;;2.20;99.90;;;1.63;96.88;102534.78;5218859;28;20748;-68
2022/01/11 01:42:24;;;;;;;23.48;7.38;;;2.20;99.90;;;1.60;97.04;102542.19;5206345;28;20055;-69
2022/01/11 01:44:59;;;;;;;21.63;6.82;;;2.10;99.90;;;1.50;97.09;102544.59;5223721;28;20041;-68
2022/01/11 01:47:32;;;;;;;19.20;6.45;;;2.10;99.90;;;1.49;97.05;102532.50;5224651;28;20514;-68
2022/01/11 01:50:06;;;;;;;17.92;6.43;;;2.00;99.90;;;1.46;97.00;102537.34;5209601;28;20045;-68
2022/01/11 01:52:39;;;;;;;22.98;7.18;;;2.00;99.90;;;1.47;96.66;102545.19;5204260;28;20046;-68
2022/01/11 01:55:12;;;;;;;22.58;7.55;;;2.00;99.90;;;1.43;96.94;102548.22;5203709;28;20395;-68
2022/01/11 01:57:44;;;;;;;22.55;7.70;;;2.00;99.90;;;1.42;96.82;102545.50;5205702;28;20055;-68
2022/01/11 02:00:18;;;;;;;22.85;7.78;;;1.90;99.90;;;1.44;96.96;102556.84;5207517;28;20054;-68
2022/01/11 02:02:50;;;;;;;24.50;8.65;;;1.90;99.90;;;1.42;96.32;102555.78;5207778;28;20061;-68
2022/01/11 02:05:22;;;;;;;30.33;8.98;;;1.90;99.90;;;1.39;96.57;102558.06;5207306;28;20057;-68
2022/01/11 02:07:56;;;;;;;22.52;7.47;;;1.90;99.90;;;1.46;96.62;102558.81;5207902;28;20398;-68
2022/01/11 02:10:28;;;;;;;25.35;7.75;;;1.90;99.90;;;1.54;96.87;102557.00;5207493;28;20045;-68
2022/01/11 02:13:01;;;;;;;24.40;8.45;;;2.00;99.90;;;1.57;96.66;102559.88;5207142;28;20056;-68
2022/01/11 02:15:33;;;;;;;18.70;6.68;;;2.00;99.90;;;1.50;95.83;102560.00;5207032;28;20046;-69
2022/01/11 02:18:10;;;;;;;21.00;6.40;;;1.90;99.90;;;1.42;95.96;102556.69;5207213;28;20055;-68
2022/01/11 02:20:45;;;;;;;21.60;6.75;;;1.90;99.90;;;1.39;96.07;102560.63;5207465;28;20179;-68
2022/01/11 02:23:19;;;;;;;25.92;8.55;;;1.90;99.90;;;1.28;96.32;102573.31;5207916;28;20552;-68
2022/01/11 02:25:52;;;;;;;20.33;7.00;;;1.90;99.90;;;1.30;96.55;102576.97;5207216;28;20045;-68
2022/01/11 02:28:25;;;;;;;27.80;8.43;;;1.90;99.90;;;1.28;96.87;102565.59;5207253;28;20144;-68
2022/01/11 02:31:00;;;;;;;22.50;7.47;;;1.80;99.90;;;1.36;96.90;102564.69;5206964;28;20045;-68
2022/01/11 02:33:35;;;;;;;25.20;8.27;;;1.80;99.90;;;1.39;96.76;102568.34;5206741;28;20053;-68
2022/01/11 02:36:12;;;;;;;27.80;9.13;;;1.80;99.90;;;1.34;96.26;102571.34;5206724;28;20548;-68
2022/01/11 02:38:46;;;;;;;26.80;7.75;;;1.80;99.90;;;1.35;97.04;102578.28;5206741;28;20053;-68
2022/01/11 02:41:18;;;;;;;27.05;7.32;;;1.80;99.90;;;1.32;96.96;102584.81;5207159;28;20045;-68
2022/01/11 02:43:50;;;;;;;19.85;7.38;;;1.80;99.90;;;1.26;96.70;102584.19;5206382;28;20143;-68
2022/01/11 02:46:23;;;;;;;18.67;6.97;;;1.80;99.90;;;1.14;96.98;102581.28;5206765;28;20053;-68
2022/01/11 02:48:57;;;;;;;25.10;8.52;;;1.70;99.90;;;1.09;97.55;102585.06;5206589;28;20069;-68
2022/01/11 02:51:30;;;;;;;20.38;7.72;;;1.70;99.90;;;1.04;97.88;102587.19;5206968;28;20052;-68
2022/01/11 02:54:05;;;;;;;26.15;7.82;;;1.70;99.90;;;1.07;98.30;102584.91;5206136;28;20422;-68
2022/01/11 02:56:36;;;;;;;24.85;7.85;;;1.70;99.90;;;1.17;97.51;102588.38;5206729;28;20144;-68
2022/01/11 02:59:11;;;;;;;20.83;7.75;;;1.70;99.90;;;1.28;97.72;102591.28;5206756;28;20045;-68
2022/01/11 03:01:43;;;;;;;24.90;7.90;;;1.70;99.90;;;1.34;97.63;102591.91;5206574;28;20383;-68
2022/01/11 03:04:15;;;;;;;28.52;7.95;;;1.80;99.90;;;1.40;97.50;102598.41;5206176;28;20072;-68
2022/01/11 03:06:49;;;;;;;26.52;7.75;;;1.80;99.90;;;1.43;97.31;102604.75;5206430;28;20479;-68
2022/01/11 03:09:21;;;;;;;24.27;7.60;;;1.80;99.90;;;1.41;97.18;102606.28;5205110;28;20049;-68
2022/01/11 03:11:53;;;;;;;23.75;6.55;;;1.90;99.90;;;1.38;96.49;102605.97;5206348;28;20107;-68
2022/01/11 03:14:25;;;;;;;22.58;7.47;;;1.80;99.90;;;1.34;96.73;102607.31;5205794;28;20049;-68
2022/01/11 03:16:57;;;;;;;22.73;7.93;;;1.80;99.90;;;1.35;96.45;102611.69;5206143;28;20049;-68
2022/01/11 03:19:29;;;;;;;26.67;7.75;;;1.80;99.90;;;1.42;96.35;102609.75;5206509;28;20053;-68
2022/01/11 03:22:03;;;;;;;21.13;7.43;;;1.90;99.90;;;1.48;96.61;102612.94;5205955;28;20053;-68
2022/01/11 03:24:35;;;;;;;25.00;8.90;;;1.90;99.90;;;1.44;96.01;102616.88;5205616;28;20486;-68
2022/01/11 03:27:07;;;;;;;27.17;7.85;;;1.90;99.90;;;1.39;96.56;102622.31;5206059;28;20136;-68
2022/01/11 03:29:40;;;;;;;24.75;8.45;;;1.80;99.90;;;1.44;96.22;102615.97;5206069;28;20061;-68
2022/01/11 03:32:15;;;;;;;24.20;8.18;;;1.90;99.90;;;1.47;95.92;102623.97;5205850;28;20045;-68
2022/01/11 03:34:47;;;;;;;26.60;7.53;;;1.90;99.90;;;1.44;96.44;102623.69;5205312;28;20080;-68
2022/01/11 03:37:20;;;;;;;26.77;7.90;;;1.90;99.90;;;1.39;95.87;102627.44;5205955;28;20057;-68
2022/01/11 03:39:52;;;;;;;22.60;7.50;;;1.80;99.90;;;1.39;96.20;102624.88;5205976;28;20421;-68
2022/01/11 03:42:24;;;;;;;25.67;7.25;;;1.90;99.90;;;1.32;96.42;102619.13;5205649;28;20405;-68
2022/01/11 03:44:56;;;;;;;23.00;7.72;;;1.80;99.90;;;1.26;95.70;102613.38;5205487;28;20042;-68
2022/01/11 03:47:28;;;;;;;22.85;7.22;;;1.80;99.90;;;1.27;96.19;102619.41;5205991;28;20042;-68
2022/01/11 03:50:00;;;;;;;19.05;6.85;;;1.80;99.90;;;1.20;96.60;102623.03;5205882;28;20049;-68
2022/01/11 03:52:34;;;;;;;22.73;6.78;;;1.80;99.90;;;1.10;96.01;102622.81;5205557;28;20046;-68
2022/01/11 03:55:12;;;;;;;18.95;6.15;;;1.70;99.90;;;1.03;96.70;102630.66;5205120;28;20394;-68
2022/01/11 03:57:44;;;;;;;20.45;7.05;;;1.60;99.90;;;1.00;97.06;102621.00;5205213;28;20061;-68
2022/01/11 04:00:20;;;;;;;23.38;7.13;;;1.60;99.90;;;1.01;96.97;102627.03;5205526;28;20049;-68
2022/01/11 04:02:52;;;;;;;24.27;7.57;;;1.60;99.90;;;1.04;96.51;102625.72;5205351;28;20059;-68
2022/01/11 04:05:24;;;;;;;21.73;7.65;;;1.60;99.90;;;0.99;96.37;102618.28;5204864;28;20041;-69
2022/01/11 04:07:58;;;;;;;22.90;8.07;;;1.60;99.90;;;0.93;96.64;102612.50;5205254;28;20050;-69
2022/01/11 04:10:30;;;;;;;19.75;7.30;;;1.50;99.90;;;0.85;96.84;102611.75;5205412;28;20050;-69
2022/01/11 04:13:02;;;;;;;18.75;6.70;;;1.40;99.90;;;0.81;96.74;102618.19;5205503;28;20060;-69
2022/01/11 04:15:34;;;;;;;21.70;6.78;;;1.40;99.90;;;0.72;96.98;102617.28;5204925;28;20049;-69
2022/01/11 04:18:06;;;;;;;23.30;6.85;;;1.30;99.90;;;0.69;97.71;102621.16;5204668;28;20056;-69
2022/01/11 04:20:38;;;;;;;25.15;7.07;;;1.30;99.90;;;0.71;97.37;102615.44;5204923;28;20457;-69
2022/01/11 04:23:13;;;;;;;23.80;7.47;;;1.30;99.90;;;0.82;97.17;102620.00;5204944;28;20045;-69
2022/01/11 04:25:45;;;;;;;21.23;7.70;;;1.30;99.90;;;0.92;97.15;102615.84;5204629;28;20425;-69
2022/01/11 04:28:17;;;;;;;23.98;7.80;;;1.40;99.90;;;0.98;96.33;102619.03;5204994;28;20049;-69
2022/01/11 04:30:49;;;;;;;24.23;8.45;;;1.40;99.90;;;1.00;96.77;102620.09;5205205;28;20061;-69
2022/01/11 04:33:22;;;;;;;21.13;7.03;;;1.40;99.90;;;1.03;96.48;102625.53;5205145;28;20052;-69
2022/01/11 04:35:55;;;;;;;31.25;9.27;;;1.40;99.90;;;1.04;96.27;102627.34;5204301;28;20053;-68
2022/01/11 04:38:31;;;;;;;24.52;8.15;;;1.40;99.90;;;0.87;96.16;102627.28;5204853;28;20053;-69
2022/01/11 04:41:04;;;;;;;27.48;9.40;;;1.40;99.90;;;0.81;96.60;102625.91;5204894;28;20406;-69
2022/01/11 04:43:36;;;;;;;37.85;10.07;;;1.30;99.90;;;0.84;96.29;102627.88;5204844;28;20057;-69
2022/01/11 04:46:08;;;;;;;26.90;8.23;;;1.40;99.90;;;0.90;96.41;102627.59;5204070;28;20049;-69
2022/01/11 04:48:40;;;;;;;23.90;6.85;;;1.40;99.90;;;0.94;96.55;102633.22;5204889;28;20049;-69
2022/01/11 04:51:12;;;;;;;22.98;7.40;;;1.40;99.90;;;1.01;96.27;102633.09;5204825;28;20056;-69
2022/01/11 04:53:45;;;;;;;27.33;9.38;;;1.40;99.90;;;1.03;95.81;102641.84;5204374;28;20049;-69
2022/01/11 04:56:17;;;;;;;25.20;8.70;;;1.40;99.90;;;1.04;96.36;102637.59;5204695;28;20395;-69
2022/01/11 04:58:50;;;;;;;26.70;10.02;;;1.40;99.90;;;0.99;95.99;102633.69;5204384;28;20514;-69
2022/01/11 05:01:22;;;;;;;18.90;7.00;;;1.40;99.90;;;1.00;95.94;102632.94;5204646;28;20049;-69
2022/01/11 05:03:54;;;;;;;20.38;6.63;;;1.40;99.90;;;1.04;95.70;102638.56;5203725;28;20060;-69
2022/01/11 05:06:27;;;;;;;20.92;6.20;;;1.40;99.90;;;1.07;96.00;102637.94;5204517;28;20042;-69
2022/01/11 05:09:00;;;;;;;21.25;6.53;;;1.50;99.90;;;1.08;95.29;102642.31;5204635;28;20049;-68
2022/01/11 05:11:32;;;;;;;21.38;7.13;;;1.50;99.90;;;1.03;95.05;102641.84;5204923;28;20067;-68
2022/01/11 05:14:04;;;;;;;17.35;6.85;;;1.50;99.90;;;0.96;95.16;102641.97;5203683;28;20057;-69
2022/01/11 05:16:36;;;;;;;19.23;6.65;;;1.40;99.90;;;0.89;95.34;102646.31;5204046;28;20049;-69
2022/01/11 05:19:12;;;;;;;22.13;6.85;;;1.40;99.90;;;0.89;96.27;102646.31;5204697;28;20367;-69
2022/01/11 05:21:45;;;;;;;16.83;6.20;;;1.40;99.90;;;0.85;95.62;102655.38;5204602;28;20061;-69
2022/01/11 05:24:18;;;;;;;20.85;5.93;;;1.30;99.90;;;0.77;96.06;102646.88;5204061;28;20049;-69
2022/01/11 05:26:50;;;;;;;18.13;5.75;;;1.30;99.90;;;0.74;96.15;102654.28;5204015;28;20048;-69
2022/01/11 05:29:22;;;;;;;19.88;6.30;;;1.30;99.90;;;0.72;96.07;102666.06;5204531;28;20049;-69
2022/01/11 05:31:56;;;;;;;18.85;6.32;;;1.30;99.90;;;0.65;96.24;102654.97;5205255;28;20115;-68
2022/01/11 05:34:28;;;;;;;18.52;6.05;;;1.20;99.90;;;0.61;95.96;102653.75;5207693;28;20058;-68
2022/01/11 05:37:00;;;;;;;20.83;6.32;;;1.20;99.90;;;0.74;95.84;102661.97;5207841;28;20053;-68
2022/01/11 05:39:33;;;;;;;16.30;6.13;;;1.20;99.90;;;0.73;96.35;102655.03;5208359;28;20049;-69
2022/01/11 05:42:07;;;;;;;20.05;6.60;;;1.20;99.90;;;0.70;95.81;102654.69;5208445;28;20072;-68
2022/01/11 05:44:39;;;;;;;22.98;6.88;;;1.20;99.90;;;0.76;96.22;102657.00;5207933;28;20453;-68
2022/01/11 05:47:11;;;;;;;28.65;8.32;;;1.20;99.90;;;0.74;96.41;102659.41;5207983;28;20052;-68
2022/01/11 05:49:43;;;;;;;20.02;6.07;;;1.20;99.90;;;0.65;96.95;102660.09;5207815;28;20052;-69
2022/01/11 05:52:15;;;;;;;24.52;7.32;;;1.20;99.90;;;0.72;97.32;102657.44;5208160;28;20059;-69
2022/01/11 05:54:48;;;;;;;20.85;7.43;;;1.20;99.90;;;0.73;97.05;102670.44;5207555;28;20387;-69
2022/01/11 05:57:20;;;;;;;22.88;7.25;;;1.20;99.90;;;0.69;97.25;102673.41;5256263;23;20044;-71
2022/01/11 05:59:52;;;;;;;23.65;7.93;;;1.20;99.90;;;0.61;96.88;102681.09;5186038;28;20069;-72
2022/01/11 06:02:24;;;;;;;20.08;7.63;;;1.20;99.90;;;0.54;96.92;102675.31;5187431;28;20046;-72
2022/01/11 06:04:57;;;;;;;22.30;8.43;;;1.10;99.90;;;0.49;97.51;102678.13;5187362;28;20060;-72
2022/01/11 06:07:29;;;;;;;20.58;6.63;;;1.10;99.90;;;0.42;97.07;102675.69;5187670;28;20375;-72
2022/01/11 06:10:02;;;;;;;23.60;8.63;;;1.00;99.90;;;0.40;98.13;102683.22;5187688;28;20046;-72
2022/01/11 06:12:34;;;;;;;20.35;6.30;;;1.00;99.90;;;0.41;97.90;102676.44;5187398;28;20061;-72
2022/01/11 06:15:07;;;;;;;19.60;6.95;;;1.00;99.90;;;0.39;97.53;102681.41;5186933;28;20041;-72
2022/01/11 06:17:39;;;;;;;18.63;5.63;;;1.00;99.90;;;0.39;98.19;102691.66;5187435;28;20049;-72
2022/01/11 06:20:12;;;;;;;20.80;7.15;;;1.00;99.90;;;0.32;98.21;102681.47;5185678;28;20064;-72
2022/01/11 06:22:44;;;;;;;20.60;7.57;;;1.00;99.90;;;0.25;98.50;102682.47;5179361;28;20050;-72
2022/01/11 06:25:17;;;;;;;20.73;6.40;;;0.90;99.90;;;0.30;98.62;102684.63;5158001;28;20047;-72
2022/01/11 06:27:50;;;;;;;17.60;6.05;;;0.90;99.90;;;0.33;98.87;102684.97;5146205;28;20054;-72
2022/01/11 06:30:22;;;;;;;25.08;8.27;;;0.90;99.90;;;0.33;98.39;102690.13;5146382;28;20055;-72
2022/01/11 06:32:55;;;;;;;22.75;8.10;;;0.90;99.90;;;0.37;98.71;102693.16;5146406;28;20057;-72
2022/01/11 06:35:28;;;;;;;21.02;7.35;;;0.90;99.90;;;0.47;98.83;102692.47;5146846;28;20526;-72
2022/01/11 06:38:00;;;;;;;18.95;6.45;;;1.00;99.90;;;0.56;98.98;102696.00;5147297;28;20109;-72
2022/01/11 06:40:33;;;;;;;24.10;8.38;;;1.00;99.90;;;0.61;98.55;102693.91;5147607;28;20047;-72
2022/01/11 06:43:06;;;;;;;22.90;7.82;;;1.10;99.90;;;0.68;98.32;102702.41;5156778;28;20053;-72
2022/01/11 06:45:39;;;;;;;18.38;6.90;;;1.10;99.90;;;0.72;98.38;102703.66;5166167;28;20057;-72
2022/01/11 06:48:12;;;;;;;21.75;7.20;;;1.20;99.90;;;0.70;97.69;102710.25;5166404;28;20414;-72
2022/01/11 06:50:44;;;;;;;21.92;7.22;;;1.20;99.90;;;0.59;97.80;102704.03;5166560;28;20608;-72
2022/01/11 06:53:16;;;;;;;23.92;6.72;;;1.10;99.90;;;0.63;98.19;102705.25;5166800;28;20408;-72
2022/01/11 06:55:49;;;;;;;21.40;6.93;;;1.10;99.90;;;0.70;98.08;102715.41;5166415;28;20054;-72
2022/01/11 06:58:21;;;;;;;24.60;7.65;;;1.20;99.90;;;0.73;97.46;102711.50;5166682;28;20050;-73
2022/01/11 07:00:53;;;;;;;20.90;6.57;;;1.20;99.90;;;0.77;97.83;102723.91;5166747;28;20510;-73
2022/01/11 07:03:26;;;;;;;22.40;7.20;;;1.20;99.90;;;0.81;97.46;102717.44;5166728;28;20046;-73
2022/01/11 07:05:58;;;;;;;25.10;7.65;;;1.30;99.90;;;0.87;98.00;102718.06;5166574;28;20046;-73
2022/01/11 07:08:31;;;;;;;17.80;6.47;;;1.30;99.90;;;0.83;96.82;102726.19;5166508;28;20052;-73
2022/01/11 07:11:04;;;;;;;26.27;7.75;;;1.30;99.90;;;0.77;96.92;102734.16;5166674;28;20052;-73
2022/01/11 07:13:36;;;;;;;21.27;7.05;;;1.30;99.90;;;0.72;96.75;102729.31;5166354;28;20046;-73
2022/01/11 07:16:08;;;;;;;19.83;7.10;;;1.30;99.90;;;0.62;97.37;102740.28;5166073;28;20498;-73
2022/01/11 07:18:40;;;;;;;19.20;6.28;;;1.20;99.90;;;0.54;97.31;102738.56;5166344;28;20050;-73
2022/01/11 07:21:12;;;;;;;21.45;6.60;;;1.20;99.90;;;0.48;98.04;102750.75;5166517;28;20046;-73
2022/01/11 07:23:44;;;;;;;20.88;6.45;;;1.10;99.90;;;0.49;98.06;102752.56;5166010;28;20061;-73
2022/01/11 07:26:18;;;;;;;20.38;6.97;;;1.10;99.90;;;0.52;97.79;102760.56;5166380;28;20050;-73
2022/01/11 07:28:50;;;;;;;20.10;6.07;;;1.10;99.90;;;0.53;98.04;102758.19;5166131;28;20047;-73
2022/01/11 07:31:22;;;;;;;20.73;6.50;;;1.10;99.90;;;0.56;97.56;102752.44;5165919;28;20050;-73
2022/01/11 07:33:54;;;;;;;20.25;6.82;;;1.10;99.90;;;0.52;97.44;102750.28;5165561;28;20054;-74
2022/01/11 07:36:26;;;;;;;19.08;6.55;;;1.00;99.90;;;0.50;97.73;102751.81;5166276;28;20054;-73
2022/01/11 07:38:58;;;;;;;23.13;7.68;;;1.00;99.90;;;0.40;97.29;102749.94;5165877;28;20050;-73
2022/01/11 07:41:31;;;;;;;19.30;7.50;;;1.00;99.90;;;0.33;98.22;102767.09;5166318;28;20454;-73
2022/01/11 07:44:04;;;;;;;19.33;6.22;;;1.00;99.90;;;0.34;98.63;102768.91;5165244;28;20383;-74
2022/01/11 07:46:36;;;;;;;22.17;6.45;;;0.90;99.90;;;0.29;98.60;102765.84;5165875;28;20057;-74
2022/01/11 07:49:08;;;;;;;18.55;6.32;;;0.90;99.90;;;0.30;98.90;102769.31;5166213;28;20410;-73
2022/01/11 07:51:41;;;;;;;20.88;6.90;;;0.90;99.90;;;0.32;98.85;102775.50;5165666;28;20054;-73
2022/01/11 07:54:13;;;;;;;18.48;6.43;;;0.90;99.90;;;0.32;98.41;102775.50;5164888;28;20515;-73
2022/01/11 07:56:46;;;;;;;23.52;7.47;;;0.90;99.90;;;0.26;98.67;102769.00;5165145;28;20054;-72
2022/01/11 07:59:19;;;;;;;19.00;6.45;;;0.90;99.90;;;0.25;98.86;102777.41;5165554;28;20060;-72
2022/01/11 08:01:50;;;;;;;19.27;6.20;;;0.80;99.90;;;0.22;99.07;102777.09;5165299;28;20068;-72
2022/01/11 08:04:22;;;;;;;23.23;7.10;;;0.80;99.90;;;0.21;99.42;102770.16;5164927;28;20056;-72
2022/01/11 08:06:54;;;;;;;18.25;7.05;;;0.80;99.90;;;0.19;99.34;102774.19;5165233;28;20046;-72
2022/01/11 08:09:27;;;;;;;25.65;7.40;;;0.80;99.90;;;0.20;99.04;102773.47;5165332;28;20046;-72
2022/01/11 08:12:01;;;;;;;22.42;8.10;;;0.80;99.90;;;0.20;99.38;102773.47;5165377;28;20054;-72
2022/01/11 08:14:33;;;;;;;21.40;7.40;;;0.80;99.90;;;0.24;99.05;102784.94;5164924;28;20055;-72
2022/01/11 08:17:05;;;;;;;25.02;7.90;;;0.80;99.90;;;0.12;99.15;102781.97;5164812;28;20046;-72
2022/01/11 08:19:37;;;;;;;19.50;6.47;;;0.70;99.90;;;0.01;99.12;102776.44;5165048;28;20046;-72
2022/01/11 08:22:09;;;;;;;18.88;7.28;;;0.70;99.90;;;-0.05;100.00;102784.38;5165021;28;20057;-72
2022/01/11 08:24:41;;;;;;;18.35;6.20;;;0.60;99.90;;;-0.04;100.00;102778.50;5164737;28;20054;-72
2022/01/11 08:27:15;;;;;;;21.45;7.18;;;0.60;99.90;;;-0.08;100.00;102781.47;5165043;28;20101;-72
2022/01/11 08:29:47;;;;;;;19.25;6.70;;;0.60;99.90;;;-0.06;100.00;102783.47;5165133;28;20054;-72
2022/01/11 08:32:19;;;;;;;23.27;7.00;;;0.60;99.90;;;-0.03;100.00;102788.00;5164748;28;20054;-72
2022/01/11 08:34:52;;;;;;;19.60;6.32;;;0.60;99.90;;;0.03;100.00;102786.09;5164621;28;20418;-73
2022/01/11 08:37:24;;;;;;;18.77;6.93;;;0.60;99.90;;;0.18;100.00;102790.31;5164834;28;20057;-73
2022/01/11 08:39:56;;;;;;;18.35;6.72;;;0.70;99.90;;;0.26;100.00;102791.13;5164829;28;20058;-72
2022/01/11 08:42:30;;;;;;;19.55;5.80;;;0.80;99.90;;;0.24;100.00;102803.81;5164614;28;20054;-73
2022/01/11 08:45:02;;;;;;;23.92;7.43;;;0.80;99.90;;;0.19;99.66;102802.41;5164498;28;20501;-72
2022/01/11 08:47:35;;;;;;;23.38;7.18;;;0.80;99.90;;;0.17;99.76;102801.31;5164726;28;20042;-73
2022/01/11 08:50:11;;;;;;;23.63;6.45;;;0.80;99.90;;;0.19;99.85;102804.97;5164610;28;20082;-72
2022/01/11 08:52:45;;;;;;;16.60;6.75;;;0.80;99.90;;;0.22;100.00;102796.72;5164924;28;20506;-72
2022/01/11 08:55:17;;;;;;;17.70;6.43;;;0.80;99.90;;;0.25;99.61;102797.94;5164488;28;20065;-73
2022/01/11 08:57:51;;;;;;;18.08;6.53;;;0.80;99.90;;;0.26;99.27;102796.28;5164341;28;20057;-72
2022/01/11 09:00:26;;;;;;;23.92;8.02;;;0.80;99.90;;;0.26;99.09;102806.53;5164471;28;20046;-72
2022/01/11 09:02:58;;;;;;;18.67;6.10;;;0.90;99.90;;;0.24;99.43;102814.06;5164926;28;20142;-73
2022/01/11 09:05:30;;;;;;;15.55;5.35;;;0.80;99.90;;;0.28;98.94;102810.19;5163863;28;20050;-70
2022/01/11 09:08:02;;;;;;;17.38;6.13;;;0.80;99.90;;;0.30;98.96;102805.22;5163363;28;20053;-70
2022/01/11 09:10:34;;;;;;;19.40;6.38;;;0.80;99.90;;;0.28;98.85;102805.06;5164296;28;20050;-70
2022/01/11 09:13:08;;;;;;;21.95;6.80;;;0.80;99.90;;;0.26;98.67;102801.41;5164064;28;20057;-71
2022/01/11 09:15:40;;;;;;;16.85;5.85;;;0.90;99.90;;;0.37;98.52;102800.00;5163621;28;20586;-69
2022/01/11 09:18:12;;;;;;;18.98;5.95;;;0.90;99.90;;;0.30;98.35;102803.56;5164166;28;20050;-70
2022/01/11 09:20:44;;;;;;;15.43;5.93;;;0.90;99.90;;;0.36;98.14;102803.31;5163974;28;20054;-70
2022/01/11 09:23:16;;;;;;;17.73;5.68;;;0.90;99.90;;;0.47;98.44;102802.81;5163721;28;20050;-70
2022/01/11 09:25:49;;;;;;;19.88;6.28;;;0.90;99.90;;;0.46;97.76;102796.78;5163266;28;20076;-69
2022/01/11 09:28:23;;;;;;;19.80;7.18;;;1.00;99.90;;;0.52;98.05;102801.63;5163734;28;20148;-70
2022/01/11 09:30:55;;;;;;;16.92;6.03;;;1.00;99.90;;;0.62;97.95;102809.56;5164078;28;20073;-70
2022/01/11 09:33:27;;;;;;;21.30;5.80;;;1.10;99.90;;;0.76;97.82;102809.38;5163737;28;20047;-68
2022/01/11 09:35:59;;;;;;;15.95;5.57;;;1.20;99.90;;;0.87;97.79;102812.19;5163011;28;20476;-68
2022/01/11 09:38:31;;;;;;;18.60;5.95;;;1.30;99.90;;;0.92;97.50;102805.88;5163653;28;20050;-70
2022/01/11 09:41:03;;;;;;;17.10;6.03;;;1.30;99.90;;;1.03;97.30;102807.88;5163995;28;20057;-68
2022/01/11 09:43:38;;;;;;;20.02;6.68;;;1.40;99.90;;;1.08;96.64;102811.84;5163721;28;20582;-68
2022/01/11 09:46:10;;;;;;;17.88;6.43;;;1.50;99.90;;;1.12;96.02;102801.16;5162822;28;20057;-67
2022/01/11 09:48:43;;;;;;;18.33;6.03;;;1.50;99.90;;;1.20;96.21;102805.44;5163745;28;20054;-68
2022/01/11 09:51:15;;;;;;;16.83;5.47;;;1.60;99.90;;;1.20;95.25;102805.44;5163475;28;20151;-69
2022/01/11 09:53:48;;;;;;;18.95;5.80;;;1.60;99.90;;;1.12;94.27;102802.81;5163495;28;20046;-68
2022/01/11 09:56:20;;;;;;;18.58;5.55;;;1.60;99.90;;;1.14;94.33;102799.66;5163686;28;20236;-67
2022/01/11 09:58:53;;;;;;;15.02;5.32;;;1.60;99.90;;;1.20;94.41;102810.56;5163552;28;20054;-68
2022/01/11 10:01:26;;;;;;;18.05;4.75;;;1.60;99.90;;;1.28;93.88;102812.28;5163361;28;20050;-68
2022/01/11 10:04:03;;;;;;;15.82;6.20;;;1.70;99.90;;;1.46;94.42;102813.28;5163124;28;20060;-68
2022/01/11 10:06:39;;;;;;;17.27;5.10;;;1.80;99.90;;;1.56;94.03;102809.97;5163512;28;20133;-69
2022/01/11 10:09:16;;;;;;;;;;;1.90;99.90;;;1.69;93.88;102819.84;5163871;28;20487;-69
2022/01/11 10:11:50;;;;;;;14.80;5.28;;;2.00;99.90;;;1.77;93.22;102809.63;5163526;28;19928;-69
2022/01/11 10:14:29;;;;;;;19.08;5.75;;;2.00;99.90;;;1.79;92.74;102808.09;5162956;28;20050;-68
2022/01/11 10:17:10;;;;;;;15.63;6.97;;;2.10;99.90;;;1.84;92.40;102811.16;5164044;28;20046;-70
2022/01/11 10:19:45;;;;;;;14.90;5.25;;;2.20;99.90;;;1.92;92.21;102806.78;5167230;28;20129;-69
2022/01/11 10:22:21;;;;;;;15.15;5.55;;;2.20;99.90;;;1.93;91.51;102806.03;5167263;28;20050;-68
2022/01/11 10:24:55;;;;;;;14.93;5.82;;;2.20;99.90;;;1.88;90.81;102798.75;5167025;28;20177;-69
2022/01/11 10:27:30;;;;;;;15.77;5.80;;;2.30;99.90;;;1.93;90.91;102803.44;5167574;28;20042;-69
2022/01/11 10:30:08;;;;;;;20.02;6.50;;;2.30;99.90;;;2.06;91.19;102802.25;5167309;28;20050;-69
2022/01/11 10:32:43;;;;;;;18.30;6.60;;;2.30;99.90;;;2.07;90.79;102795.44;5167246;28;20054;-69
2022/01/11 10:35:18;;;;;;;17.42;6.13;;;2.40;99.90;;;2.23;90.71;102793.66;5166888;28;20058;-69
2022/01/11 10:37:52;;;;;;;19.83;5.80;;;2.50;99.90;;;2.36;90.52;102796.72;5167113;28;20483;-69
2022/01/11 10:40:27;;;;;;;19.15;5.75;;;2.60;99.90;;;2.30;89.85;102802.91;5167046;28;20050;-69
2022/01/11 10:43:04;;;;;;;16.40;5.85;;;2.60;99.90;;;2.25;89.77;102802.44;5166840;28;20054;-69
2022/01/11 10:45:39;;;;;;;21.05;6.43;;;2.60;99.90;;;2.41;89.94;102802.28;5166859;28;20054;-69
2022/01/11 10:48:14;;;;;;;14.68;5.80;;;2.70;99.90;;;2.74;90.18;102791.88;5167283;28;20051;-69